sensor_id;sensor_type;location;lat;lon;timestamp;pressure;altitude;pressure_sealevel;temperature;humidity
29359;BME280;16347;53.232;6.556;2023-12-20T00:01:17;101197.28;;;8.66;70.81
29359;BME280;16347;53.232;6.556;2023-12-20T00:03:46;101187.84;;;8.70;71.14
29359;BME280;16347;53.232;6.556;2023-12-20T00:06:14;101194.88;;;8.33;72.04
29359;BME280;16347;53.232;6.556;2023-12-20T00:08:42;101179.56;;;8.62;71.83
29359;BME280;16347;53.232;6.556;2023-12-20T00:11:10;101189.25;;;8.64;71.25
29359;BME280;16347;53.232;6.556;2023-12-20T00:13:38;101178.41;;;8.55;71.36
29359;BME280;16347;53.232;6.556;2023-12-20T00:16:06;101183.56;;;8.67;71.57
29359;BME280;16347;53.232;6.556;2023-12-20T00:18:33;101185.19;;;8.80;71.35
29359;BME280;16347;53.232;6.556;2023-12-20T00:21:03;101182.59;;;8.78;71.02
29359;BME280;16347;53.232;6.556;2023-12-20T00:23:31;101178.59;;;8.72;71.58
29359;BME280;16347;53.232;6.556;2023-12-20T00:25:59;101185.97;;;8.61;71.56
29359;BME280;16347;53.232;6.556;2023-12-20T00:28:26;101182.69;;;8.67;71.92
29359;BME280;16347;53.232;6.556;2023-12-20T00:30:54;101180.25;;;8.64;71.88
29359;BME280;16347;53.232;6.556;2023-12-20T00:33:22;101173.03;;;8.74;71.78
29359;BME280;16347;53.232;6.556;2023-12-20T00:35:50;101168.13;;;8.58;71.89
29359;BME280;16347;53.232;6.556;2023-12-20T00:38:19;101180.69;;;8.59;72.30
29359;BME280;16347;53.232;6.556;2023-12-20T00:40:47;101176.72;;;8.73;71.98
29359;BME280;16347;53.232;6.556;2023-12-20T00:43:16;101178.41;;;8.55;71.39
29359;BME280;16347;53.232;6.556;2023-12-20T00:45:44;101180.75;;;8.39;71.92
29359;BME280;16347;53.232;6.556;2023-12-20T00:48:12;101188.09;;;8.57;71.34
29359;BME280;16347;53.232;6.556;2023-12-20T00:50:39;101190.28;;;8.73;70.84
29359;BME280;16347;53.232;6.556;2023-12-20T00:53:07;101185.16;;;8.40;70.79
29359;BME280;16347;53.232;6.556;2023-12-20T00:55:36;101173.66;;;8.47;70.53
29359;BME280;16347;53.232;6.556;2023-12-20T00:58:04;101156.44;;;8.67;70.34
29359;BME280;16347;53.232;6.556;2023-12-20T01:00:32;101155.59;;;8.67;69.42
29359;BME280;16347;53.232;6.556;2023-12-20T01:02:59;101151.88;;;8.58;69.83
29359;BME280;16347;53.232;6.556;2023-12-20T01:05:27;101146.59;;;8.66;69.44
29359;BME280;16347;53.232;6.556;2023-12-20T01:07:55;101134.75;;;8.58;69.24
29359;BME280;16347;53.232;6.556;2023-12-20T01:10:23;101143.06;;;8.66;69.25
29359;BME280;16347;53.232;6.556;2023-12-20T01:12:55;101137.00;;;8.53;69.92
29359;BME280;16347;53.232;6.556;2023-12-20T01:15:23;101143.31;;;8.63;69.70
29359;BME280;16347;53.232;6.556;2023-12-20T01:17:51;101138.44;;;8.47;70.30
29359;BME280;16347;53.232;6.556;2023-12-20T01:20:19;101145.00;;;8.54;70.12
29359;BME280;16347;53.232;6.556;2023-12-20T01:22:47;101133.59;;;8.60;70.60
29359;BME280;16347;53.232;6.556;2023-12-20T01:25:15;101132.75;;;8.60;70.32
29359;BME280;16347;53.232;6.556;2023-12-20T01:27:43;101128.56;;;8.46;71.07
29359;BME280;16347;53.232;6.556;2023-12-20T01:30:13;101123.31;;;8.45;71.32
29359;BME280;16347;53.232;6.556;2023-12-20T01:32:41;101131.56;;;8.43;71.03
29359;BME280;16347;53.232;6.556;2023-12-20T01:35:08;101126.91;;;8.55;71.16
29359;BME280;16347;53.232;6.556;2023-12-20T01:37:36;101141.47;;;8.73;71.21
29359;BME280;16347;53.232;6.556;2023-12-20T01:40:05;101139.09;;;8.80;70.56
29359;BME280;16347;53.232;6.556;2023-12-20T01:42:33;101134.06;;;8.75;70.85
29359;BME280;16347;53.232;6.556;2023-12-20T01:45:01;101133.19;;;8.55;71.32
29359;BME280;16347;53.232;6.556;2023-12-20T01:47:30;101133.91;;;8.67;71.27
29359;BME280;16347;53.232;6.556;2023-12-20T01:49:58;101127.78;;;8.65;70.85
29359;BME280;16347;53.232;6.556;2023-12-20T01:52:27;101130.31;;;8.57;71.78
29359;BME280;16347;53.232;6.556;2023-12-20T01:54:55;101131.84;;;8.40;71.56
29359;BME280;16347;53.232;6.556;2023-12-20T01:57:29;101128.97;;;8.32;71.98
29359;BME280;16347;53.232;6.556;2023-12-20T01:59:57;101139.22;;;8.29;72.03
29359;BME280;16347;53.232;6.556;2023-12-20T02:02:26;101135.28;;;8.42;71.93
29359;BME280;16347;53.232;6.556;2023-12-20T02:04:56;101145.16;;;8.22;72.38
29359;BME280;16347;53.232;6.556;2023-12-20T02:07:24;101118.63;;;8.26;71.79
29359;BME280;16347;53.232;6.556;2023-12-20T02:09:53;101108.06;;;8.23;71.29
29359;BME280;16347;53.232;6.556;2023-12-20T02:12:21;101111.66;;;8.23;71.92
29359;BME280;16347;53.232;6.556;2023-12-20T02:14:49;101101.03;;;8.41;71.29
29359;BME280;16347;53.232;6.556;2023-12-20T02:17:20;101097.34;;;8.42;71.48
29359;BME280;16347;53.232;6.556;2023-12-20T02:19:49;101102.22;;;8.58;70.80
29359;BME280;16347;53.232;6.556;2023-12-20T02:22:18;101104.19;;;8.46;70.86
29359;BME280;16347;53.232;6.556;2023-12-20T02:24:46;101099.22;;;8.51;70.83
29359;BME280;16347;53.232;6.556;2023-12-20T02:27:15;101089.97;;;8.63;70.66
29359;BME280;16347;53.232;6.556;2023-12-20T02:29:47;101095.47;;;8.43;70.85
29359;BME280;16347;53.232;6.556;2023-12-20T02:32:15;101086.53;;;8.61;71.05
29359;BME280;16347;53.232;6.556;2023-12-20T02:34:43;101083.34;;;8.37;71.36
29359;BME280;16347;53.232;6.556;2023-12-20T02:37:11;101072.13;;;8.51;71.45
29359;BME280;16347;53.232;6.556;2023-12-20T02:39:40;101096.50;;;8.42;71.82
29359;BME280;16347;53.232;6.556;2023-12-20T02:42:08;101116.31;;;8.42;72.34
29359;BME280;16347;53.232;6.556;2023-12-20T02:44:36;101093.94;;;7.80;73.93
29359;BME280;16347;53.232;6.556;2023-12-20T02:47:04;101074.84;;;8.11;73.98
29359;BME280;16347;53.232;6.556;2023-12-20T02:49:31;101092.91;;;8.32;72.88
29359;BME280;16347;53.232;6.556;2023-12-20T02:51:59;101090.66;;;8.16;72.60
29359;BME280;16347;53.232;6.556;2023-12-20T02:54:27;101081.84;;;8.23;72.09
29359;BME280;16347;53.232;6.556;2023-12-20T02:56:56;101080.91;;;8.34;71.92
29359;BME280;16347;53.232;6.556;2023-12-20T02:59:24;101074.31;;;8.27;71.93
29359;BME280;16347;53.232;6.556;2023-12-20T03:01:52;101069.41;;;8.42;72.61
29359;BME280;16347;53.232;6.556;2023-12-20T03:04:20;101062.72;;;8.55;72.18
29359;BME280;16347;53.232;6.556;2023-12-20T03:06:48;101057.59;;;8.62;72.68
29359;BME280;16347;53.232;6.556;2023-12-20T03:09:15;101049.00;;;8.57;72.70
29359;BME280;16347;53.232;6.556;2023-12-20T03:11:43;101046.59;;;8.63;72.49
29359;BME280;16347;53.232;6.556;2023-12-20T03:14:12;101045.47;;;8.75;72.47
29359;BME280;16347;53.232;6.556;2023-12-20T03:16:40;101041.03;;;8.74;72.22
29359;BME280;16347;53.232;6.556;2023-12-20T03:19:08;101037.75;;;8.81;72.49
29359;BME280;16347;53.232;6.556;2023-12-20T03:21:36;101040.47;;;8.90;72.05
29359;BME280;16347;53.232;6.556;2023-12-20T03:24:04;101056.72;;;8.81;72.39
29359;BME280;16347;53.232;6.556;2023-12-20T03:26:32;101053.03;;;8.82;72.69
29359;BME280;16347;53.232;6.556;2023-12-20T03:29:00;101060.44;;;8.70;73.14
29359;BME280;16347;53.232;6.556;2023-12-20T03:31:29;101044.31;;;8.68;73.59
29359;BME280;16347;53.232;6.556;2023-12-20T03:33:57;101054.59;;;8.84;73.42
29359;BME280;16347;53.232;6.556;2023-12-20T03:36:25;101051.31;;;8.90;72.49
29359;BME280;16347;53.232;6.556;2023-12-20T03:38:52;101036.91;;;8.99;72.17
29359;BME280;16347;53.232;6.556;2023-12-20T03:41:20;101031.31;;;9.01;71.36
29359;BME280;16347;53.232;6.556;2023-12-20T03:43:48;101033.75;;;8.94;71.35
29359;BME280;16347;53.232;6.556;2023-12-20T03:46:16;101037.34;;;8.75;71.71
29359;BME280;16347;53.232;6.556;2023-12-20T03:48:45;101034.34;;;8.79;71.66
29359;BME280;16347;53.232;6.556;2023-12-20T03:51:13;101032.03;;;8.74;71.79
29359;BME280;16347;53.232;6.556;2023-12-20T03:53:41;101025.75;;;8.64;71.52
29359;BME280;16347;53.232;6.556;2023-12-20T03:56:08;101025.47;;;8.57;72.01
29359;BME280;16347;53.232;6.556;2023-12-20T03:58:36;101015.91;;;8.44;72.85
29359;BME280;16347;53.232;6.556;2023-12-20T04:01:09;101012.50;;;8.61;72.27
29359;BME280;16347;53.232;6.556;2023-12-20T04:03:38;101011.22;;;8.46;72.77
29359;BME280;16347;53.232;6.556;2023-12-20T04:06:08;101017.63;;;8.45;73.01
29359;BME280;16347;53.232;6.556;2023-12-20T04:08:36;101007.94;;;8.42;72.94
29359;BME280;16347;53.232;6.556;2023-12-20T04:11:04;101015.91;;;8.63;72.91
29359;BME280;16347;53.232;6.556;2023-12-20T04:13:31;101006.09;;;8.52;72.94
29359;BME280;16347;53.232;6.556;2023-12-20T04:15:59;101009.34;;;8.46;72.73
29359;BME280;16347;53.232;6.556;2023-12-20T04:18:27;101006.78;;;8.35;72.76
29359;BME280;16347;53.232;6.556;2023-12-20T04:20:55;101000.22;;;8.28;73.34
29359;BME280;16347;53.232;6.556;2023-12-20T04:23:24;100990.09;;;8.40;72.95
29359;BME280;16347;53.232;6.556;2023-12-20T04:25:53;100988.09;;;8.42;72.96
29359;BME280;16347;53.232;6.556;2023-12-20T04:28:21;100993.69;;;8.59;72.22
29359;BME280;16347;53.232;6.556;2023-12-20T04:30:49;100983.97;;;8.66;72.11
29359;BME280;16347;53.232;6.556;2023-12-20T04:33:17;100986.94;;;8.73;71.76
29359;BME280;16347;53.232;6.556;2023-12-20T04:35:44;100995.22;;;8.81;71.58
29359;BME280;16347;53.232;6.556;2023-12-20T04:38:12;100983.50;;;8.90;70.95
29359;BME280;16347;53.232;6.556;2023-12-20T04:40:41;100983.53;;;8.81;71.18
29359;BME280;16347;53.232;6.556;2023-12-20T04:43:09;100983.69;;;8.79;70.93
29359;BME280;16347;53.232;6.556;2023-12-20T04:45:37;100986.78;;;8.94;70.70
29359;BME280;16347;53.232;6.556;2023-12-20T04:48:06;100989.66;;;8.92;70.59
29359;BME280;16347;53.232;6.556;2023-12-20T04:50:34;100990.50;;;9.12;69.97
29359;BME280;16347;53.232;6.556;2023-12-20T04:53:01;100987.34;;;8.97;70.05
29359;BME280;16347;53.232;6.556;2023-12-20T04:55:29;100996.66;;;8.95;70.44
29359;BME280;16347;53.232;6.556;2023-12-20T04:57:58;100990.06;;;8.97;70.60
29359;BME280;16347;53.232;6.556;2023-12-20T05:00:26;100982.66;;;9.09;69.94
29359;BME280;16347;53.232;6.556;2023-12-20T05:02:54;100988.94;;;9.09;69.96
29359;BME280;16347;53.232;6.556;2023-12-20T05:05:22;100993.91;;;9.14;70.27
29359;BME280;16347;53.232;6.556;2023-12-20T05:07:50;100993.44;;;9.28;69.75
29359;BME280;16347;53.232;6.556;2023-12-20T05:10:19;100992.91;;;9.15;70.26
29359;BME280;16347;53.232;6.556;2023-12-20T05:12:47;100991.94;;;9.06;70.64
29359;BME280;16347;53.232;6.556;2023-12-20T05:15:16;100999.47;;;9.12;70.60
29359;BME280;16347;53.232;6.556;2023-12-20T05:17:44;100990.91;;;9.07;70.72
29359;BME280;16347;53.232;6.556;2023-12-20T05:20:12;100982.66;;;9.09;71.21
29359;BME280;16347;53.232;6.556;2023-12-20T05:22:41;100996.06;;;9.01;72.00
29359;BME280;16347;53.232;6.556;2023-12-20T05:25:09;100991.34;;;8.93;72.25
29359;BME280;16347;53.232;6.556;2023-12-20T05:27:37;100987.81;;;8.93;72.47
29359;BME280;16347;53.232;6.556;2023-12-20T05:30:05;100993.91;;;9.04;72.33
29359;BME280;16347;53.232;6.556;2023-12-20T05:32:35;100974.53;;;8.99;72.09
29359;BME280;16347;53.232;6.556;2023-12-20T05:35:03;100984.34;;;9.00;72.15
29359;BME280;16347;53.232;6.556;2023-12-20T05:37:31;100983.66;;;8.98;71.83
29359;BME280;16347;53.232;6.556;2023-12-20T05:39:59;100984.66;;;8.97;71.82
29359;BME280;16347;53.232;6.556;2023-12-20T05:42:27;100967.66;;;9.05;71.44
29359;BME280;16347;53.232;6.556;2023-12-20T05:44:54;100951.09;;;9.08;71.27
29359;BME280;16347;53.232;6.556;2023-12-20T05:47:24;100947.34;;;9.18;71.26
29359;BME280;16347;53.232;6.556;2023-12-20T05:49:54;100956.94;;;9.13;70.68
29359;BME280;16347;53.232;6.556;2023-12-20T05:52:22;100959.53;;;9.05;71.36
29359;BME280;16347;53.232;6.556;2023-12-20T05:54:49;100965.81;;;8.96;71.17
29359;BME280;16347;53.232;6.556;2023-12-20T05:57:17;100969.38;;;8.87;71.93
29359;BME280;16347;53.232;6.556;2023-12-20T05:59:45;100972.38;;;8.93;72.20
29359;BME280;16347;53.232;6.556;2023-12-20T06:02:13;100963.09;;;9.05;71.82
29359;BME280;16347;53.232;6.556;2023-12-20T06:04:42;100953.56;;;8.92;72.12
29359;BME280;16347;53.232;6.556;2023-12-20T06:07:12;100954.25;;;8.94;72.34
29359;BME280;16347;53.232;6.556;2023-12-20T06:09:40;100941.81;;;9.01;72.37
29359;BME280;16347;53.232;6.556;2023-12-20T06:12:08;100939.94;;;9.11;71.82
29359;BME280;16347;53.232;6.556;2023-12-20T06:14:37;100950.94;;;9.09;71.62
29359;BME280;16347;53.232;6.556;2023-12-20T06:17:04;100972.91;;;9.16;71.22
29359;BME280;16347;53.232;6.556;2023-12-20T06:19:32;100940.41;;;8.87;71.92
29359;BME280;16347;53.232;6.556;2023-12-20T06:22:00;100944.97;;;8.87;72.21
29359;BME280;16347;53.232;6.556;2023-12-20T06:24:29;100938.22;;;9.10;71.92
29359;BME280;16347;53.232;6.556;2023-12-20T06:26:59;100935.97;;;9.05;71.43
29359;BME280;16347;53.232;6.556;2023-12-20T06:29:28;100944.47;;;9.20;71.30
29359;BME280;16347;53.232;6.556;2023-12-20T06:31:55;100934.94;;;9.16;71.65
29359;BME280;16347;53.232;6.556;2023-12-20T06:34:23;100930.81;;;9.12;71.93
29359;BME280;16347;53.232;6.556;2023-12-20T06:36:51;100931.72;;;9.30;72.01
29359;BME280;16347;53.232;6.556;2023-12-20T06:39:19;100930.78;;;9.21;71.77
29359;BME280;16347;53.232;6.556;2023-12-20T06:41:48;100922.34;;;9.24;71.30
29359;BME280;16347;53.232;6.556;2023-12-20T06:44:16;100909.19;;;9.30;71.56
29359;BME280;16347;53.232;6.556;2023-12-20T06:46:44;100918.41;;;9.09;71.38
29359;BME280;16347;53.232;6.556;2023-12-20T06:49:12;100921.25;;;9.08;72.44
29359;BME280;16347;53.232;6.556;2023-12-20T06:51:40;100924.78;;;9.18;71.85
29359;BME280;16347;53.232;6.556;2023-12-20T06:54:08;100915.78;;;9.17;72.20
29359;BME280;16347;53.232;6.556;2023-12-20T06:56:36;100918.25;;;9.11;72.25
29359;BME280;16347;53.232;6.556;2023-12-20T06:59:05;100906.13;;;9.05;72.60
29359;BME280;16347;53.232;6.556;2023-12-20T07:01:33;100908.38;;;9.10;72.56
29359;BME280;16347;53.232;6.556;2023-12-20T07:04:01;100909.50;;;9.17;72.04
29359;BME280;16347;53.232;6.556;2023-12-20T07:06:29;100914.53;;;9.12;71.68
29359;BME280;16347;53.232;6.556;2023-12-20T07:08:57;100894.38;;;9.14;71.80
29359;BME280;16347;53.232;6.556;2023-12-20T07:11:24;100902.34;;;9.25;71.39
29359;BME280;16347;53.232;6.556;2023-12-20T07:13:52;100894.81;;;9.19;71.30
29359;BME280;16347;53.232;6.556;2023-12-20T07:16:22;100884.16;;;9.36;71.05
29359;BME280;16347;53.232;6.556;2023-12-20T07:18:51;100884.72;;;9.39;70.61
29359;BME280;16347;53.232;6.556;2023-12-20T07:21:20;100916.59;;;9.27;71.10
29359;BME280;16347;53.232;6.556;2023-12-20T07:23:48;100899.13;;;9.12;71.21
29359;BME280;16347;53.232;6.556;2023-12-20T07:26:16;100893.78;;;9.20;71.48
29359;BME280;16347;53.232;6.556;2023-12-20T07:28:47;100898.91;;;9.23;71.37
29359;BME280;16347;53.232;6.556;2023-12-20T07:31:18;100897.22;;;9.22;71.40
29359;BME280;16347;53.232;6.556;2023-12-20T07:33:47;100893.75;;;9.30;71.38
29359;BME280;16347;53.232;6.556;2023-12-20T07:36:15;100888.66;;;9.17;71.54
29359;BME280;16347;53.232;6.556;2023-12-20T07:38:43;100902.66;;;9.22;71.40
29359;BME280;16347;53.232;6.556;2023-12-20T07:41:11;100914.69;;;9.01;71.70
29359;BME280;16347;53.232;6.556;2023-12-20T07:43:39;100904.97;;;9.08;72.21
29359;BME280;16347;53.232;6.556;2023-12-20T07:46:07;100915.00;;;8.98;72.54
29359;BME280;16347;53.232;6.556;2023-12-20T07:48:36;100904.09;;;9.17;72.24
29359;BME280;16347;53.232;6.556;2023-12-20T07:51:05;100897.09;;;9.14;71.80
29359;BME280;16347;53.232;6.556;2023-12-20T07:53:35;100897.81;;;9.16;71.55
29359;BME280;16347;53.232;6.556;2023-12-20T07:56:13;100905.16;;;8.97;71.80
29359;BME280;16347;53.232;6.556;2023-12-20T07:58:41;100908.72;;;8.97;72.28
29359;BME280;16347;53.232;6.556;2023-12-20T08:01:18;100902.09;;;9.19;71.58
29359;BME280;16347;53.232;6.556;2023-12-20T08:03:48;100916.09;;;9.14;71.49
29359;BME280;16347;53.232;6.556;2023-12-20T08:06:17;100900.66;;;9.15;71.63
29359;BME280;16347;53.232;6.556;2023-12-20T08:08:45;100911.19;;;9.27;71.42
29359;BME280;16347;53.232;6.556;2023-12-20T08:11:27;100902.78;;;9.21;71.25
29359;BME280;16347;53.232;6.556;2023-12-20T08:13:55;100912.25;;;9.07;72.06
29359;BME280;16347;53.232;6.556;2023-12-20T08:16:23;100933.53;;;9.12;72.02
29359;BME280;16347;53.232;6.556;2023-12-20T08:18:51;100915.56;;;9.01;72.01
29359;BME280;16347;53.232;6.556;2023-12-20T08:21:21;100942.22;;;9.15;72.11
29359;BME280;16347;53.232;6.556;2023-12-20T08:23:49;100908.59;;;8.99;71.96
29359;BME280;16347;53.232;6.556;2023-12-20T08:26:18;100915.41;;;9.12;71.81
29359;BME280;16347;53.232;6.556;2023-12-20T08:28:46;100904.84;;;9.09;71.84
29359;BME280;16347;53.232;6.556;2023-12-20T08:31:15;100920.84;;;9.03;72.11
29359;BME280;16347;53.232;6.556;2023-12-20T08:33:44;100934.09;;;9.15;71.64
29359;BME280;16347;53.232;6.556;2023-12-20T08:36:12;100953.81;;;9.45;70.46
29359;BME280;16347;53.232;6.556;2023-12-20T08:38:41;100957.31;;;9.27;66.93
29359;BME280;16347;53.232;6.556;2023-12-20T08:41:09;100963.53;;;9.01;65.80
29359;BME280;16347;53.232;6.556;2023-12-20T08:43:37;100967.13;;;8.82;66.42
29359;BME280;16347;53.232;6.556;2023-12-20T08:46:06;100986.84;;;8.55;67.98
29359;BME280;16347;53.232;6.556;2023-12-20T08:48:36;101038.50;;;8.23;68.95
29359;BME280;16347;53.232;6.556;2023-12-20T08:51:05;101008.31;;;7.79;71.74
29359;BME280;16347;53.232;6.556;2023-12-20T08:53:35;100972.03;;;8.00;71.93
29359;BME280;16347;53.232;6.556;2023-12-20T08:56:05;100972.19;;;7.99;72.11
29359;BME280;16347;53.232;6.556;2023-12-20T08:58:33;100994.44;;;8.12;72.76
29359;BME280;16347;53.232;6.556;2023-12-20T09:01:03;100993.00;;;7.98;73.03
29359;BME280;16347;53.232;6.556;2023-12-20T09:03:31;100993.78;;;7.89;74.17
29359;BME280;16347;53.232;6.556;2023-12-20T09:05:59;101011.50;;;7.93;74.63
29359;BME280;16347;53.232;6.556;2023-12-20T09:08:27;101019.06;;;7.99;74.63
29359;BME280;16347;53.232;6.556;2023-12-20T09:10:54;101021.38;;;8.13;74.90
29359;BME280;16347;53.232;6.556;2023-12-20T09:13:24;101012.53;;;8.11;74.49
29359;BME280;16347;53.232;6.556;2023-12-20T09:15:55;101007.16;;;8.21;74.35
29359;BME280;16347;53.232;6.556;2023-12-20T09:18:23;101022.25;;;8.14;74.08
29359;BME280;16347;53.232;6.556;2023-12-20T09:20:51;101010.25;;;8.16;73.91
29359;BME280;16347;53.232;6.556;2023-12-20T09:23:20;101003.84;;;8.17;73.93
29359;BME280;16347;53.232;6.556;2023-12-20T09:25:47;100997.22;;;8.31;73.39
29359;BME280;16347;53.232;6.556;2023-12-20T09:28:15;101001.66;;;8.32;72.26
29359;BME280;16347;53.232;6.556;2023-12-20T09:30:44;101001.94;;;8.29;72.10
29359;BME280;16347;53.232;6.556;2023-12-20T09:33:13;101003.97;;;8.16;71.62
29359;BME280;16347;53.232;6.556;2023-12-20T09:35:41;101012.91;;;8.37;70.79
29359;BME280;16347;53.232;6.556;2023-12-20T09:38:09;101004.25;;;8.13;70.72
29359;BME280;16347;53.232;6.556;2023-12-20T09:40:39;101013.84;;;8.26;70.76
29359;BME280;16347;53.232;6.556;2023-12-20T09:43:11;101023.69;;;8.18;69.56
29359;BME280;16347;53.232;6.556;2023-12-20T09:45:41;101025.97;;;8.22;69.37
29359;BME280;16347;53.232;6.556;2023-12-20T09:48:13;101033.94;;;8.14;69.42
29359;BME280;16347;53.232;6.556;2023-12-20T09:50:41;101029.81;;;8.20;69.21
29359;BME280;16347;53.232;6.556;2023-12-20T09:53:15;101012.84;;;8.18;69.11
29359;BME280;16347;53.232;6.556;2023-12-20T09:55:44;101008.00;;;8.12;68.84
29359;BME280;16347;53.232;6.556;2023-12-20T09:58:11;101014.63;;;8.29;68.47
29359;BME280;16347;53.232;6.556;2023-12-20T10:00:39;100996.38;;;8.50;68.33
29359;BME280;16347;53.232;6.556;2023-12-20T10:03:08;101013.78;;;8.66;67.49
29359;BME280;16347;53.232;6.556;2023-12-20T10:05:39;101026.91;;;8.52;67.51
29359;BME280;16347;53.232;6.556;2023-12-20T10:08:11;101029.06;;;8.58;67.95
29359;BME280;16347;53.232;6.556;2023-12-20T10:10:39;101032.22;;;8.72;67.47
29359;BME280;16347;53.232;6.556;2023-12-20T10:13:15;101035.03;;;8.52;67.65
29359;BME280;16347;53.232;6.556;2023-12-20T10:15:43;101031.59;;;8.50;68.64
29359;BME280;16347;53.232;6.556;2023-12-20T10:18:12;101028.75;;;8.42;68.98
29359;BME280;16347;53.232;6.556;2023-12-20T10:20:45;101025.47;;;8.67;68.60
29359;BME280;16347;53.232;6.556;2023-12-20T10:23:15;101029.50;;;8.82;67.83
29359;BME280;16347;53.232;6.556;2023-12-20T10:25:55;101017.78;;;8.72;68.19
29359;BME280;16347;53.232;6.556;2023-12-20T10:28:23;101016.06;;;8.81;68.05
29359;BME280;16347;53.232;6.556;2023-12-20T10:30:55;101017.38;;;8.86;67.87
29359;BME280;16347;53.232;6.556;2023-12-20T10:33:25;101006.66;;;8.75;67.44
29359;BME280;16347;53.232;6.556;2023-12-20T10:35:55;101008.22;;;8.68;67.99
29359;BME280;16347;53.232;6.556;2023-12-20T10:38:23;100999.53;;;8.55;68.65
29359;BME280;16347;53.232;6.556;2023-12-20T10:40:54;100991.69;;;8.61;68.91
29359;BME280;16347;53.232;6.556;2023-12-20T10:43:24;100990.38;;;8.46;69.31
29359;BME280;16347;53.232;6.556;2023-12-20T10:45:54;100991.81;;;8.60;68.83
29359;BME280;16347;53.232;6.556;2023-12-20T10:48:22;100990.69;;;8.62;68.70
29359;BME280;16347;53.232;6.556;2023-12-20T10:50:57;100983.81;;;8.77;68.29
29359;BME280;16347;53.232;6.556;2023-12-20T10:53:25;100989.97;;;8.89;67.65
29359;BME280;16347;53.232;6.556;2023-12-20T10:55:55;100983.38;;;9.01;67.03
29359;BME280;16347;53.232;6.556;2023-12-20T10:58:26;100988.63;;;9.12;66.97
29359;BME280;16347;53.232;6.556;2023-12-20T11:00:59;100983.94;;;9.05;66.83
29359;BME280;16347;53.232;6.556;2023-12-20T11:03:32;100986.63;;;9.14;66.06
29359;BME280;16347;53.232;6.556;2023-12-20T11:06:08;100991.31;;;9.22;64.92
29359;BME280;16347;53.232;6.556;2023-12-20T11:08:44;100994.09;;;9.03;64.37
29359;BME280;16347;53.232;6.556;2023-12-20T11:11:21;101000.06;;;9.06;64.96
29359;BME280;16347;53.232;6.556;2023-12-20T11:13:57;100991.63;;;9.09;64.77
29359;BME280;16347;53.232;6.556;2023-12-20T11:16:25;100989.63;;;9.11;64.52
29359;BME280;16347;53.232;6.556;2023-12-20T11:19:07;100984.78;;;9.05;64.17
29359;BME280;16347;53.232;6.556;2023-12-20T11:21:36;100977.34;;;9.07;64.25
29359;BME280;16347;53.232;6.556;2023-12-20T11:24:05;100975.91;;;9.22;63.81
29359;BME280;16347;53.232;6.556;2023-12-20T11:26:33;100970.00;;;9.37;63.63
29359;BME280;16347;53.232;6.556;2023-12-20T11:29:31;100972.59;;;9.28;63.65
29359;BME280;16347;53.232;6.556;2023-12-20T11:32:01;100970.56;;;9.31;63.36
29359;BME280;16347;53.232;6.556;2023-12-20T11:34:31;100964.91;;;9.14;63.30
29359;BME280;16347;53.232;6.556;2023-12-20T11:37:02;100963.94;;;9.15;64.11
29359;BME280;16347;53.232;6.556;2023-12-20T11:39:31;100970.91;;;9.18;63.88
29359;BME280;16347;53.232;6.556;2023-12-20T11:42:04;100969.59;;;9.32;63.73
29359;BME280;16347;53.232;6.556;2023-12-20T11:44:33;100959.97;;;9.37;63.72
29359;BME280;16347;53.232;6.556;2023-12-20T11:47:01;100956.97;;;9.40;63.60
29359;BME280;16347;53.232;6.556;2023-12-20T11:49:30;100954.47;;;9.29;63.55
29359;BME280;16347;53.232;6.556;2023-12-20T11:51:58;100957.28;;;9.37;63.90
29359;BME280;16347;53.232;6.556;2023-12-20T11:54:30;100948.25;;;9.09;63.68
29359;BME280;16347;53.232;6.556;2023-12-20T11:56:57;100953.44;;;9.30;64.18
29359;BME280;16347;53.232;6.556;2023-12-20T11:59:26;100954.25;;;9.50;63.92
29359;BME280;16347;53.232;6.556;2023-12-20T12:01:54;100946.94;;;9.50;64.13
29359;BME280;16347;53.232;6.556;2023-12-20T12:04:27;100938.41;;;9.45;63.96
29359;BME280;16347;53.232;6.556;2023-12-20T12:06:55;100931.78;;;9.20;64.34
29359;BME280;16347;53.232;6.556;2023-12-20T12:09:24;100928.50;;;9.26;64.36
29359;BME280;16347;53.232;6.556;2023-12-20T12:11:53;100928.53;;;9.44;63.58
29359;BME280;16347;53.232;6.556;2023-12-20T12:14:22;100920.13;;;9.38;63.54
29359;BME280;16347;53.232;6.556;2023-12-20T12:16:49;100923.72;;;9.38;63.53
29359;BME280;16347;53.232;6.556;2023-12-20T12:19:20;100915.13;;;9.43;63.78
29359;BME280;16347;53.232;6.556;2023-12-20T12:21:48;100911.56;;;9.42;63.34
29359;BME280;16347;53.232;6.556;2023-12-20T12:24:20;100916.13;;;9.42;63.77
29359;BME280;16347;53.232;6.556;2023-12-20T12:26:52;100913.03;;;9.27;64.11
29359;BME280;16347;53.232;6.556;2023-12-20T12:29:20;100924.97;;;9.07;63.89
29359;BME280;16347;53.232;6.556;2023-12-20T12:31:48;100930.38;;;9.16;64.12
29359;BME280;16347;53.232;6.556;2023-12-20T12:34:17;100915.63;;;9.28;63.76
29359;BME280;16347;53.232;6.556;2023-12-20T12:36:45;100915.44;;;9.30;64.19
29359;BME280;16347;53.232;6.556;2023-12-20T12:39:15;100931.19;;;9.26;64.16
29359;BME280;16347;53.232;6.556;2023-12-20T12:41:43;100917.22;;;9.21;64.12
29359;BME280;16347;53.232;6.556;2023-12-20T12:44:12;100917.44;;;9.38;63.79
29359;BME280;16347;53.232;6.556;2023-12-20T12:46:44;100913.59;;;9.31;63.93
29359;BME280;16347;53.232;6.556;2023-12-20T12:49:12;100909.19;;;9.30;64.08
29359;BME280;16347;53.232;6.556;2023-12-20T12:51:40;100903.22;;;9.26;63.51
29359;BME280;16347;53.232;6.556;2023-12-20T12:54:07;100900.63;;;9.24;63.76
29359;BME280;16347;53.232;6.556;2023-12-20T12:56:36;100904.50;;;9.22;63.72
29359;BME280;16347;53.232;6.556;2023-12-20T12:59:04;100911.81;;;9.12;63.33
29359;BME280;16347;53.232;6.556;2023-12-20T13:01:34;100908.94;;;9.23;63.74
29359;BME280;16347;53.232;6.556;2023-12-20T13:04:02;100906.31;;;9.31;63.53
29359;BME280;16347;53.232;6.556;2023-12-20T13:06:33;100903.25;;;9.44;63.13
29359;BME280;16347;53.232;6.556;2023-12-20T13:09:01;100898.84;;;9.43;62.28